Terminal Aerodrome Forecast
Issued by NWS

Home | Current Version | Previous Version | Graphics & Text | Print | Product List | Glossary On
Versions: 1 2 3 4 5 6 7 8 9 10 11 12 13 14 15 16
634
FTUS43 KICT 220258 AAA
TAFSLN
TAF AMD
KSLN 220258Z 2203/2224 35008KT P6SM -SHRA SCT007 OVC035
      TEMPO 2203/2207 4SM -RA BR SCT007 OVC012
     FM220700 36008KT P6SM VCSH OVC012
     FM220900 34008KT P6SM OVC015
     FM221200 34007KT P6SM OVC025
     FM221900 02009KT P6SM OVC060=

USA.gov is the U.S. government's official web portal to all federal, state and local government web resources and services.